createdAt,value
2018-11-06T00:01:13.402Z,486.00
2018-11-06T00:03:49.761Z,478.53
2018-11-06T00:06:22.458Z,474.87
2018-11-06T00:09:05.349Z,467.43
2018-11-06T00:11:37.732Z,459.63
2018-11-06T00:14:10.071Z,456.43
2018-11-06T00:16:42.379Z,456.50
2018-11-06T00:19:15.799Z,461.10
2018-11-06T00:21:49.276Z,461.97
2018-11-06T00:24:22.107Z,467.17
2018-11-06T00:26:55.780Z,467.20
2018-11-06T00:29:29.121Z,470.03
2018-11-06T00:32:01.714Z,471.47
2018-11-06T00:34:34.493Z,471.73
2018-11-06T00:37:07.654Z,475.50
2018-11-06T00:39:40.563Z,473.53
2018-11-06T00:42:13.427Z,471.73
2018-11-06T00:44:46.595Z,471.40
2018-11-06T00:47:19.406Z,469.77
2018-11-06T00:49:52.510Z,469.60
2018-11-06T00:52:25.060Z,463.10
2018-11-06T00:54:58.146Z,463.47
2018-11-06T00:57:30.842Z,464.10
2018-11-06T01:00:03.426Z,462.73
2018-11-06T01:02:36.254Z,455.53
2018-11-06T01:05:10.517Z,457.90
2018-11-06T01:07:45.096Z,465.73
2018-11-06T01:10:18.565Z,480.27
2018-11-06T01:12:52.111Z,499.47
2018-11-06T01:15:25.872Z,497.80
2018-11-06T01:17:59.125Z,504.67
2018-11-06T01:20:31.481Z,508.77
2018-11-06T01:23:04.930Z,504.03
2018-11-06T01:25:37.555Z,514.67
2018-11-06T01:28:11.022Z,533.43
2018-11-06T01:30:43.655Z,541.50
2018-11-06T01:33:16.231Z,540.40
2018-11-06T01:35:48.824Z,529.90
2018-11-06T01:38:22.182Z,531.67
2018-11-06T01:40:54.957Z,532.17
2018-11-06T01:43:27.828Z,532.87
2018-11-06T01:46:00.684Z,530.83
2018-11-06T01:48:33.847Z,534.17
2018-11-06T01:51:06.828Z,531.70
2018-11-06T01:53:39.385Z,530.90
2018-11-06T01:56:12.511Z,529.13
2018-11-06T01:58:45.525Z,520.57
2018-11-06T02:01:18.648Z,517.07
2018-11-06T02:03:51.491Z,514.43
2018-11-06T02:06:23.870Z,504.70
2018-11-06T02:08:56.150Z,517.37
2018-11-06T02:11:28.474Z,514.97
2018-11-06T02:14:01.895Z,529.27
2018-11-06T02:16:34.179Z,536.43
2018-11-06T02:19:07.021Z,540.87
2018-11-06T02:21:40.091Z,539.40
2018-11-06T02:24:13.182Z,541.40
2018-11-06T02:26:46.265Z,540.73
2018-11-06T02:29:19.133Z,537.47
2018-11-06T02:31:52.395Z,542.03
2018-11-06T02:34:25.279Z,537.60
2018-11-06T02:36:57.904Z,532.17
2018-11-06T02:39:30.982Z,533.23
2018-11-06T02:42:03.876Z,539.40
2018-11-06T02:44:36.970Z,537.97
2018-11-06T02:47:10.425Z,532.90
2018-11-06T02:49:43.327Z,532.60
2018-11-06T02:52:16.206Z,531.20
2018-11-06T02:54:48.785Z,527.20
2018-11-06T02:57:21.903Z,530.33
2018-11-06T02:59:55.348Z,518.07
2018-11-06T03:02:28.178Z,517.97
2018-11-06T03:05:01.549Z,517.17
2018-11-06T03:07:34.375Z,518.03
2018-11-06T03:10:06.924Z,514.90
2018-11-06T03:12:39.644Z,511.03
2018-11-06T03:15:13.292Z,513.83
2018-11-06T03:17:46.438Z,505.77
2018-11-06T03:20:19.140Z,498.80
2018-11-06T03:22:53.002Z,504.63
2018-11-06T03:25:25.551Z,496.47
2018-11-06T03:28:01.127Z,492.50
2018-11-06T03:30:31.702Z,497.90
2018-11-06T03:33:04.047Z,496.17
2018-11-06T03:35:37.635Z,496.23
2018-11-06T03:38:09.942Z,497.80
2018-11-06T03:40:42.834Z,499.27
2018-11-06T03:43:15.442Z,491.10
2018-11-06T03:45:48.238Z,491.40
2018-11-06T03:48:21.335Z,489.00
2018-11-06T03:50:53.908Z,487.97
2018-11-06T03:53:26.994Z,481.73
2018-11-06T03:55:59.541Z,476.80
2018-11-06T03:58:32.550Z,475.23
2018-11-06T04:01:05.149Z,473.53
2018-11-06T04:03:38.122Z,465.83
2018-11-06T04:06:10.686Z,466.83
2018-11-06T04:08:43.299Z,460.53
2018-11-06T04:11:16.213Z,464.13
2018-11-06T04:13:49.027Z,458.70
2018-11-06T04:16:22.112Z,455.17
2018-11-06T04:18:55.417Z,446.73
2018-11-06T04:21:52.504Z,431.67
2018-11-06T04:24:25.058Z,430.60
2018-11-06T04:26:58.340Z,434.10
2018-11-06T04:29:31.161Z,453.70
2018-11-06T04:32:04.930Z,468.77
2018-11-06T04:34:37.227Z,474.00
2018-11-06T04:37:09.647Z,486.20
2018-11-06T04:39:42.298Z,501.97
2018-11-06T04:42:14.897Z,525.23
2018-11-06T04:44:47.197Z,538.23
2018-11-06T04:47:19.614Z,545.40
2018-11-06T04:49:51.883Z,537.50
2018-11-06T04:52:25.854Z,537.37
2018-11-06T04:54:58.506Z,531.43
2018-11-06T04:57:30.991Z,527.97
2018-11-06T05:00:03.876Z,521.57
2018-11-06T05:02:37.028Z,524.60
2018-11-06T05:05:10.386Z,520.80
2018-11-06T05:07:43.941Z,514.70
2018-11-06T05:10:16.731Z,507.40
2018-11-06T05:12:49.234Z,498.60
2018-11-06T05:15:22.155Z,495.43
2018-11-06T05:17:54.728Z,482.60
2018-11-06T05:20:27.639Z,472.93
2018-11-06T05:23:00.191Z,455.20
2018-11-06T05:25:32.862Z,456.87
2018-11-06T05:28:05.321Z,489.23
2018-11-06T05:30:37.898Z,526.63
2018-11-06T05:33:10.272Z,527.17
2018-11-06T05:35:42.839Z,531.63
2018-11-06T05:38:15.952Z,523.73
2018-11-06T05:41:05.386Z,522.00
2018-11-06T05:43:38.757Z,517.63
2018-11-06T05:46:12.273Z,496.83
2018-11-06T05:48:45.172Z,476.63
2018-11-06T05:51:18.306Z,471.27
2018-11-06T05:53:51.162Z,456.83
2018-11-06T05:56:23.465Z,447.77
2018-11-06T05:58:56.585Z,447.57
2018-11-06T06:01:29.412Z,441.67
2018-11-06T06:04:01.959Z,442.77
2018-11-06T06:06:35.223Z,444.50
2018-11-06T06:09:09.562Z,441.13
2018-11-06T06:11:42.617Z,443.07
2018-11-06T06:14:14.936Z,441.77
2018-11-06T06:16:47.551Z,437.30
2018-11-06T06:19:20.436Z,443.23
2018-11-06T06:21:52.795Z,434.60
2018-11-06T06:24:25.343Z,426.37
2018-11-06T06:26:58.371Z,428.53
2018-11-06T06:29:31.910Z,424.30
2018-11-06T06:32:04.710Z,426.77
2018-11-06T06:34:37.339Z,417.07
2018-11-06T06:37:10.047Z,408.07
2018-11-06T06:39:42.850Z,409.10
2018-11-06T06:42:15.134Z,418.13
2018-11-06T06:44:47.960Z,409.97
2018-11-06T06:47:21.769Z,416.27
2018-11-06T06:49:54.620Z,410.73
2018-11-06T06:52:27.458Z,412.37
2018-11-06T06:54:59.813Z,414.53
2018-11-06T06:57:32.918Z,414.60
2018-11-06T07:00:05.293Z,409.93
2018-11-06T07:02:38.625Z,408.60
2018-11-06T07:05:13.184Z,408.53
2018-11-06T07:07:45.891Z,403.03
2018-11-06T07:10:19.780Z,403.77
2018-11-06T07:12:53.676Z,400.37
2018-11-06T07:15:26.155Z,400.13
2018-11-06T07:17:58.444Z,396.67
2018-11-06T07:20:31.360Z,405.43
2018-11-06T07:23:03.919Z,403.90
2018-11-06T07:25:36.543Z,396.70
2018-11-06T07:28:09.502Z,394.23
2018-11-06T07:30:42.336Z,394.50
2018-11-06T07:33:14.748Z,393.33
2018-11-06T07:35:47.588Z,387.03
2018-11-06T07:38:20.278Z,387.37
2018-11-06T07:40:53.433Z,384.07
2018-11-06T07:43:25.658Z,384.83
2018-11-06T07:45:58.529Z,383.77
2018-11-06T07:48:31.066Z,381.87
2018-11-06T07:51:03.954Z,375.87
2018-11-06T07:53:36.821Z,374.17
2018-11-06T07:56:09.522Z,366.57
2018-11-06T07:58:42.744Z,363.70
2018-11-06T08:01:15.120Z,362.43
2018-11-06T08:03:49.043Z,366.13
2018-11-06T08:06:22.003Z,357.90
2018-11-06T08:08:57.061Z,356.87
2018-11-06T08:11:29.826Z,357.87
2018-11-06T08:14:02.643Z,359.53
2018-11-06T08:16:35.694Z,361.23
2018-11-06T08:19:08.042Z,352.33
2018-11-06T08:21:40.860Z,349.83
2018-11-06T08:24:14.002Z,346.93
2018-11-06T08:26:46.945Z,342.57
2018-11-06T08:29:19.742Z,339.80
2018-11-06T08:31:52.929Z,336.17
2018-11-06T08:34:24.835Z,340.53
2018-11-06T08:36:58.003Z,340.17
2018-11-06T08:39:30.532Z,335.00
2018-11-06T08:42:02.839Z,336.03
2018-11-06T08:44:36.504Z,331.97
2018-11-06T08:47:09.254Z,329.23
2018-11-06T08:49:41.923Z,324.90
2018-11-06T08:52:16.197Z,322.63
2018-11-06T08:54:49.254Z,324.57
2018-11-06T08:57:21.857Z,327.40
2018-11-06T08:59:54.739Z,324.40
2018-11-06T09:02:27.154Z,321.53
2018-11-06T09:04:59.685Z,322.50
2018-11-06T09:07:31.998Z,315.63
2018-11-06T09:10:04.847Z,316.63
2018-11-06T09:12:37.460Z,305.43
2018-11-06T09:15:13.116Z,316.13
2018-11-06T09:17:45.407Z,311.43
2018-11-06T09:20:18.295Z,310.10
2018-11-06T09:22:51.423Z,308.57
2018-11-06T09:25:24.044Z,291.83
2018-11-06T09:27:57.348Z,156.17
2018-11-06T09:30:30.415Z,119.50
2018-11-06T09:33:03.132Z,93.03
2018-11-06T09:35:36.052Z,56.47
2018-11-06T09:38:09.645Z,41.20
2018-11-06T09:40:43.256Z,28.40
2018-11-06T09:43:16.234Z,22.77
2018-11-06T09:45:50.087Z,16.80
2018-11-06T09:48:23.340Z,14.53
2018-11-06T09:50:55.813Z,13.77
2018-11-06T09:53:28.607Z,26.33
2018-11-06T09:56:01.409Z,18.17
2018-11-06T09:58:34.977Z,14.20
2018-11-06T10:01:07.362Z,11.50
2018-11-06T10:03:40.666Z,10.33
2018-11-06T10:06:14.138Z,9.77
2018-11-06T10:08:46.665Z,11.20
2018-11-06T10:11:19.439Z,16.20
2018-11-06T10:13:52.152Z,19.90
2018-11-06T10:16:24.766Z,18.27
2018-11-06T10:18:57.671Z,27.00
2018-11-06T10:21:30.948Z,35.77
2018-11-06T10:24:03.667Z,25.40
2018-11-06T10:26:36.573Z,19.47
2018-11-06T10:29:09.169Z,14.57
2018-11-06T10:31:41.764Z,15.30
2018-11-06T10:34:14.132Z,17.90
2018-11-06T10:36:46.990Z,16.97
2018-11-06T10:39:19.584Z,16.03
2018-11-06T10:41:51.988Z,12.60
2018-11-06T10:44:24.289Z,11.10
2018-11-06T10:46:56.857Z,11.90
2018-11-06T10:49:29.679Z,15.00
2018-11-06T10:52:01.970Z,99.20
2018-11-06T10:54:34.580Z,82.10
2018-11-06T10:57:07.462Z,72.43
2018-11-06T10:59:40.700Z,70.67
2018-11-06T11:02:43.548Z,65.60
2018-11-06T11:05:15.901Z,56.77
2018-11-06T11:07:48.323Z,53.63
2018-11-06T11:10:20.961Z,49.97
2018-11-06T11:12:53.808Z,46.77
2018-11-06T11:15:26.092Z,45.47
2018-11-06T11:17:58.959Z,44.83
2018-11-06T11:20:31.534Z,44.60
2018-11-06T11:23:04.453Z,45.93
2018-11-06T11:25:37.201Z,52.70
2018-11-06T11:28:10.172Z,54.83
2018-11-06T11:30:43.302Z,59.60
2018-11-06T11:33:17.438Z,61.60
2018-11-06T11:35:50.401Z,61.77
2018-11-06T11:38:24.260Z,60.53
2018-11-06T11:40:57.447Z,59.20
2018-11-06T11:43:30.043Z,59.10
2018-11-06T11:46:03.616Z,58.73
2018-11-06T11:48:36.866Z,58.37
2018-11-06T11:51:09.549Z,56.13
2018-11-06T11:53:42.708Z,56.03
2018-11-06T11:56:15.041Z,56.07
2018-11-06T11:58:47.342Z,55.43
2018-11-06T12:01:20.123Z,54.23
2018-11-06T12:03:53.188Z,52.47
2018-11-06T12:06:26.843Z,52.10
2018-11-06T12:08:59.650Z,52.80
2018-11-06T12:11:32.237Z,52.27
2018-11-06T12:14:04.845Z,50.03
2018-11-06T12:16:37.772Z,49.83
2018-11-06T12:19:10.456Z,49.00
2018-11-06T12:21:43.193Z,47.23
2018-11-06T12:24:15.877Z,48.00
2018-11-06T12:26:48.352Z,46.97
2018-11-06T12:29:21.004Z,47.07
2018-11-06T12:31:53.355Z,45.87
2018-11-06T12:34:25.961Z,44.90
2018-11-06T12:36:59.074Z,45.33
2018-11-06T12:39:32.251Z,44.00
2018-11-06T12:42:05.086Z,43.87
2018-11-06T12:44:38.264Z,44.67
2018-11-06T12:47:10.898Z,44.00
2018-11-06T12:49:43.589Z,43.00
2018-11-06T12:52:16.141Z,44.03
2018-11-06T12:54:49.207Z,43.00
2018-11-06T12:57:21.891Z,44.20
2018-11-06T12:59:55.281Z,50.50
2018-11-06T13:02:28.830Z,57.87
2018-11-06T13:05:01.974Z,62.10
2018-11-06T13:07:36.262Z,71.33
2018-11-06T13:10:09.011Z,74.77
2018-11-06T13:12:42.285Z,79.63
2018-11-06T13:15:15.641Z,87.10
2018-11-06T13:17:47.393Z,105.00
2018-11-06T13:20:20.580Z,117.70
2018-11-06T13:22:53.908Z,128.37
2018-11-06T13:25:26.284Z,132.83
2018-11-06T13:27:59.426Z,125.80
2018-11-06T13:30:32.441Z,126.27
2018-11-06T13:33:05.780Z,127.00
2018-11-06T13:35:38.948Z,125.47
2018-11-06T13:38:11.628Z,125.43
2018-11-06T13:40:44.441Z,129.73
2018-11-06T13:43:17.528Z,131.47
2018-11-06T13:45:50.171Z,137.03
2018-11-06T13:48:22.423Z,142.27
2018-11-06T13:50:54.986Z,143.53
2018-11-06T13:53:26.596Z,149.00
2018-11-06T13:55:59.239Z,145.00
2018-11-06T13:58:32.914Z,145.10
2018-11-06T14:01:05.526Z,133.97
2018-11-06T14:03:38.649Z,124.07
2018-11-06T14:06:11.824Z,129.73
2018-11-06T14:08:45.110Z,124.50
2018-11-06T14:11:17.857Z,125.23
2018-11-06T14:13:50.149Z,127.07
2018-11-06T14:16:23.530Z,148.00
2018-11-06T14:18:55.979Z,147.40
2018-11-06T14:21:28.320Z,142.37
2018-11-06T14:24:02.155Z,137.07
2018-11-06T14:26:35.533Z,132.00
2018-11-06T14:29:08.001Z,136.40
2018-11-06T14:31:40.918Z,134.97
2018-11-06T14:34:14.968Z,139.53
2018-11-06T14:36:48.138Z,139.00
2018-11-06T14:39:21.106Z,139.27
2018-11-06T14:41:53.806Z,141.90
2018-11-06T14:44:27.112Z,146.07
2018-11-06T14:47:00.350Z,151.93
2018-11-06T14:49:32.766Z,169.17
2018-11-06T14:52:05.570Z,185.87
2018-11-06T14:54:39.246Z,194.70
2018-11-06T14:57:11.703Z,212.40
2018-11-06T14:59:44.418Z,216.60
2018-11-06T15:02:17.766Z,211.60
2018-11-06T15:04:50.971Z,206.40
2018-11-06T15:07:23.645Z,201.93
2018-11-06T15:09:56.389Z,203.83
2018-11-06T15:12:29.083Z,203.63
2018-11-06T15:15:02.683Z,204.40
2018-11-06T15:17:35.352Z,211.43
2018-11-06T15:20:10.833Z,222.67
2018-11-06T15:22:44.003Z,227.77
2018-11-06T15:25:17.412Z,224.50
2018-11-06T15:27:50.619Z,221.10
2018-11-06T15:30:23.205Z,221.53
2018-11-06T15:32:55.977Z,218.27
2018-11-06T15:35:29.138Z,215.80
2018-11-06T15:38:03.260Z,209.33
2018-11-06T15:40:34.964Z,210.93
2018-11-06T15:43:07.323Z,208.17
2018-11-06T15:45:40.618Z,205.20
2018-11-06T15:48:13.507Z,209.47
2018-11-06T15:50:46.138Z,225.20
2018-11-06T15:53:19.135Z,221.27
2018-11-06T15:55:51.435Z,170.67
2018-11-06T15:58:24.070Z,116.33
2018-11-06T16:00:56.368Z,62.83
2018-11-06T16:03:29.793Z,43.87
2018-11-06T16:06:03.589Z,38.33
2018-11-06T16:08:36.457Z,35.43
2018-11-06T16:11:08.772Z,34.73
2018-11-06T16:13:42.129Z,26.60
2018-11-06T16:16:14.989Z,20.03
2018-11-06T16:18:48.167Z,13.83
2018-11-06T16:21:21.394Z,10.70
2018-11-06T16:23:54.478Z,10.33
2018-11-06T16:26:27.663Z,9.23
2018-11-06T16:29:00.779Z,9.17
2018-11-06T16:31:35.083Z,9.13
2018-11-06T16:34:07.456Z,8.90
2018-11-06T16:36:40.090Z,8.80
2018-11-06T16:39:13.963Z,9.87
2018-11-06T16:41:46.621Z,9.97
2018-11-06T16:44:19.773Z,13.43
2018-11-06T16:46:52.415Z,26.37
2018-11-06T16:49:25.386Z,48.23
2018-11-06T16:51:58.280Z,60.83
2018-11-06T16:54:31.237Z,75.83
2018-11-06T16:57:04.233Z,79.87
2018-11-06T16:59:36.536Z,84.33
2018-11-06T17:02:09.162Z,82.83
2018-11-06T17:04:42.725Z,76.73
2018-11-06T17:07:16.223Z,72.03
2018-11-06T17:09:49.600Z,69.57
2018-11-06T17:12:21.996Z,76.23
2018-11-06T17:14:55.295Z,88.13
2018-11-06T17:17:28.385Z,102.90
2018-11-06T17:20:01.010Z,111.60
2018-11-06T17:22:33.843Z,115.07
2018-11-06T17:25:07.338Z,112.30
2018-11-06T17:27:39.817Z,112.97
2018-11-06T17:30:15.187Z,111.80
2018-11-06T17:32:47.620Z,108.00
2018-11-06T17:35:20.838Z,103.33
2018-11-06T17:37:53.909Z,100.33
2018-11-06T17:40:26.186Z,95.43
2018-11-06T17:42:58.794Z,94.67
2018-11-06T17:45:31.422Z,91.47
2018-11-06T17:48:04.021Z,86.03
2018-11-06T17:50:36.913Z,85.70
2018-11-06T17:53:09.521Z,80.57
2018-11-06T17:55:42.109Z,82.07
2018-11-06T17:58:14.694Z,95.17
2018-11-06T18:00:47.015Z,117.73
2018-11-06T18:03:20.111Z,134.13
2018-11-06T18:05:53.050Z,130.27
2018-11-06T18:08:26.234Z,128.80
2018-11-06T18:10:58.892Z,137.17
2018-11-06T18:13:31.183Z,149.00
2018-11-06T18:16:04.074Z,155.77
2018-11-06T18:18:36.935Z,165.63
2018-11-06T18:21:09.288Z,170.33
2018-11-06T18:24:00.911Z,175.07
2018-11-06T18:26:33.262Z,176.00
2018-11-06T18:29:05.839Z,170.57
2018-11-06T18:31:38.841Z,162.00
2018-11-06T18:34:11.538Z,161.23
2018-11-06T18:36:44.858Z,167.97
2018-11-06T18:39:17.727Z,178.47
2018-11-06T18:41:52.176Z,192.37
2018-11-06T18:44:24.720Z,193.30
2018-11-06T18:46:57.343Z,197.07
2018-11-06T18:49:30.244Z,189.03
2018-11-06T18:52:02.952Z,182.10
2018-11-06T18:54:35.554Z,173.00
2018-11-06T18:57:07.866Z,163.93
2018-11-06T18:59:40.702Z,161.27
2018-11-06T19:02:13.548Z,154.20
2018-11-06T19:04:46.627Z,152.03
2018-11-06T19:07:18.962Z,146.77
2018-11-06T19:09:51.947Z,142.43
2018-11-06T19:12:24.830Z,144.17
2018-11-06T19:14:57.834Z,140.93
2018-11-06T19:17:30.155Z,137.20
2018-11-06T19:20:02.779Z,134.37
2018-11-06T19:22:35.766Z,129.47
2018-11-06T19:25:09.696Z,140.93
2018-11-06T19:27:42.083Z,142.53
2018-11-06T19:30:21.305Z,147.17
2018-11-06T19:32:54.603Z,148.93
2018-11-06T19:35:27.275Z,152.33
2018-11-06T19:37:59.829Z,148.90
2018-11-06T19:40:32.246Z,148.73
2018-11-06T19:43:04.843Z,148.17
2018-11-06T19:45:37.492Z,148.90
2018-11-06T19:48:10.063Z,150.83
2018-11-06T19:50:43.334Z,149.63
2018-11-06T19:53:16.084Z,150.27
2018-11-06T19:55:48.876Z,147.93
2018-11-06T19:58:21.605Z,146.90
2018-11-06T20:00:54.413Z,146.17
2018-11-06T20:03:27.423Z,143.10
2018-11-06T20:06:01.662Z,141.13
2018-11-06T20:08:34.587Z,144.03
2018-11-06T20:11:07.967Z,139.23
2018-11-06T20:13:40.621Z,136.60
2018-11-06T20:16:13.614Z,136.17
2018-11-06T20:18:47.628Z,139.47
2018-11-06T20:21:21.539Z,141.53
2018-11-06T20:23:56.861Z,137.57
2018-11-06T20:26:31.298Z,132.83
2018-11-06T20:29:06.519Z,135.87
2018-11-06T20:31:42.315Z,142.30
2018-11-06T20:34:17.033Z,154.37
2018-11-06T20:36:51.871Z,162.93
2018-11-06T20:39:27.579Z,163.33
2018-11-06T20:42:02.123Z,173.97
2018-11-06T20:44:36.009Z,177.27
2018-11-06T20:47:09.162Z,185.20
2018-11-06T20:49:41.935Z,190.47
2018-11-06T20:52:14.392Z,192.57
2018-11-06T20:54:47.475Z,209.90
2018-11-06T20:57:20.603Z,240.63
2018-11-06T20:59:53.687Z,281.90
2018-11-06T21:02:26.605Z,295.30
2018-11-06T21:05:01.532Z,297.90
2018-11-06T21:07:35.159Z,300.10
2018-11-06T21:10:08.101Z,293.47
2018-11-06T21:12:40.822Z,285.07
2018-11-06T21:15:13.731Z,294.67
2018-11-06T21:17:46.708Z,325.10
2018-11-06T21:20:19.470Z,357.80
2018-11-06T21:22:51.763Z,367.33
2018-11-06T21:25:24.649Z,374.10
2018-11-06T21:27:57.470Z,377.03
2018-11-06T21:30:30.736Z,369.90
2018-11-06T21:33:03.295Z,365.63
2018-11-06T21:35:35.611Z,357.83
2018-11-06T21:38:08.678Z,357.50
2018-11-06T21:40:42.896Z,370.47
2018-11-06T21:43:15.692Z,362.60
2018-11-06T21:45:50.792Z,370.17
2018-11-06T21:48:23.915Z,368.33
2018-11-06T21:50:56.814Z,350.23
2018-11-06T21:53:29.500Z,345.00
2018-11-06T21:56:01.807Z,341.63
2018-11-06T21:58:35.704Z,338.43
2018-11-06T22:01:08.324Z,341.33
2018-11-06T22:03:41.150Z,352.10
2018-11-06T22:06:13.753Z,351.60
2018-11-06T22:08:47.161Z,347.03
2018-11-06T22:11:20.325Z,349.03
2018-11-06T22:13:53.465Z,345.10
2018-11-06T22:16:26.137Z,345.93
2018-11-06T22:18:58.753Z,340.30
2018-11-06T22:21:31.372Z,336.53
2018-11-06T22:24:03.708Z,336.97
2018-11-06T22:26:36.059Z,329.70
2018-11-06T22:29:08.463Z,327.93
2018-11-06T22:31:41.209Z,322.73
2018-11-06T22:34:13.997Z,329.27
2018-11-06T22:36:46.370Z,325.97
2018-11-06T22:39:19.982Z,325.73
2018-11-06T22:41:53.167Z,329.30
2018-11-06T22:44:25.506Z,340.60
2018-11-06T22:46:58.971Z,354.87
2018-11-06T22:49:32.008Z,359.10
2018-11-06T22:52:05.200Z,367.43
2018-11-06T22:54:37.871Z,372.43
2018-11-06T22:57:10.482Z,373.07
2018-11-06T22:59:43.270Z,383.30
2018-11-06T23:02:15.642Z,376.90
2018-11-06T23:04:48.794Z,373.60
2018-11-06T23:07:39.072Z,374.10
2018-11-06T23:10:10.763Z,376.03
2018-11-06T23:12:43.752Z,370.40
2018-11-06T23:15:16.511Z,367.73
2018-11-06T23:17:49.313Z,365.50
2018-11-06T23:20:22.291Z,356.87
2018-11-06T23:22:54.920Z,348.60
2018-11-06T23:25:28.405Z,344.57
2018-11-06T23:28:01.356Z,346.73
2018-11-06T23:30:33.886Z,342.07
2018-11-06T23:33:06.586Z,341.53
2018-11-06T23:35:40.019Z,339.73
2018-11-06T23:38:13.055Z,344.33
2018-11-06T23:40:45.850Z,339.33
2018-11-06T23:43:18.164Z,340.00
2018-11-06T23:45:50.882Z,341.10
2018-11-06T23:48:23.782Z,324.90
2018-11-06T23:50:56.729Z,315.97
2018-11-06T23:53:29.619Z,311.87
2018-11-06T23:56:03.049Z,303.43
2018-11-06T23:58:36.292Z,301.73
